Overton, Nevada Weather observations

Data are for observation ending at time listed.
 Day   Time    Ave.   Ave.  Ave.  Vector   Max.   Stn.    Total    Solar   Ave.  
  of    of     Air    Rel.  Wind   Wind    Wind   Baro.  Precip.   Rad.    Soil  
Year   Day     Temp.  Hum.  Speed  Dir.    Gust   Pres.                    Temp. 
2020   (PST)    F      %     mph   deg.    mph     mb.     in.     W/m2     F   
------------------------------------------------------------------------------
 335   10:40   57.9    18    7.3   331     10.9   978.0    0.00     508    61.6
 335   10:50   58.8    18    6.9   328     10.9   977.8    0.00     516    62.2
 335   11:00   59.8    17    6.4   332     10.4   977.8    0.00     520    62.7
 335   11:10   60.3    16    7.0   331     10.6   977.7    0.00     523    62.9
 335   11:20   60.6    15    5.3   331      9.1   977.6    0.00     527    63.1
 335   11:30   61.2    15    4.5   330      8.5   977.4    0.00     528    63.0
 335   11:40   62.2    14    2.1   328      7.9   977.2    0.00     525    62.3
 335   11:50   63.0    14    2.4     2      6.1   977.1    0.00     521    61.8
 335   12:00   62.8    14    2.7   333      6.3   977.0    0.00     517    61.9
 335   12:10   63.3    14    3.0   350      5.8   976.7    0.00     513    62.3
 335   12:20   64.2    13    2.0   326      5.4   976.5    0.00     505    63.7
 335   12:30   63.9    13    2.6   333      6.0   976.4    0.00     497    63.7
 335   12:40   63.9    13    2.9   314      7.7   976.3    0.00     488    64.0
 335   12:50   64.3    13    3.3   332      7.6   976.3    0.00     476    63.3
 335   13:00   64.1    13    3.5   320      7.7   976.3    0.00     464    63.6
 335   13:10   64.3    13    2.8   296      8.0   976.1    0.00     450    63.1
 335   13:20   64.7    13    3.0   303      6.7   975.9    0.00     435    63.3
 335   13:30   65.2    13    2.0   291      5.4   975.6    0.00     416    64.0
 335   13:40   65.4    13    0.9   303      3.7   975.4    0.00     398    63.9
 335   13:50   65.5    13    3.1   315      7.5   975.3    0.00     380    64.5
 335   14:00   65.6    12    2.1   310      6.2   975.2    0.00     329    64.4
 335   14:10   66.0    12    2.5   312      5.9   975.2    0.00     336    64.4
 335   14:20   66.0    12    2.8   323      6.2   975.1    0.00     311    64.2
 335   14:30   65.9    12    1.4   247      4.2   974.9    0.00     279    64.2
 335   14:40   65.8    12    2.1   196      4.0   974.8    0.00     258    64.3
 335   14:50   65.9    12    3.0   197      4.9   974.5    0.00     239    64.3
 335   15:00   66.0    12    2.2   198      4.6   974.3    0.00     165    64.2
 335   15:10   66.2    12    1.7   207      3.9   974.3    0.00     191    63.8
 335   15:20   66.4    12    0.6   234      2.3   974.3    0.00     166    63.7
 335   15:30   66.2    12    0.9   198      2.3   974.3    0.00     113    63.1
 335   15:40   66.2    12    0.2   152      1.8   974.2    0.00      45    62.6
 335   15:50   65.8    12    1.1   158      3.7   973.9    0.00      36    62.2
 335   16:00   65.2    13    0.1   148      1.2   973.8    0.00      24    61.9
 335   16:10   64.7    14    0.0   179      0.4   973.7    0.00      24    61.3
 335   16:20   62.3    16    0.0     0      0.0   973.7    0.00      10    60.2
 335   16:30   60.2    20    0.0     0      0.0   973.5    0.00       5    59.3
 335   16:40   56.3    24    0.1   347      0.8   973.4    0.00       2    58.3
 335   16:50   55.2    23    0.0     0      0.0   973.1    0.00       0    57.9
 335   17:00   54.2    24    0.1   295      1.1   973.1    0.00       0    57.1
 335   17:10   50.6    23    0.1   296      1.5   972.8    0.00       0    56.2
 335   17:20   49.6    28    1.3   332      2.6   972.9    0.00       0    55.7
 335   17:30   49.2    27    0.4   330      1.9   972.8    0.00       0    55.3
 335   17:40   48.8    26    0.0     0      0.0   972.6    0.00       0    54.9
 335   17:50   47.5    30    0.0     0      0.0   972.6    0.00       0    54.2
 335   18:00   46.1    37    0.0     0      0.0   972.6    0.00       0    53.7
 335   18:10   45.2    38    0.0     0      0.0   972.4    0.00       0    53.5
 335   18:20   45.3    35    0.0     0      0.0   972.2    0.00       0    52.9
 335   18:30   44.0    32    0.1   296      1.4   972.1    0.00       0    52.2
 335   18:40   40.9    32    1.8   308      2.9   972.1    0.00       0    51.3
 335   18:50   41.0    36    1.5   322      3.4   972.2    0.00       0    51.3
 335   19:00   42.4    33    0.4   308      1.8   972.1    0.00       0    51.3
 335   19:10   41.8    33    0.8   312      2.1   972.0    0.00       0    50.6
 335   19:20   41.8    35    2.5   312      4.1   971.9    0.00       0    50.6
 335   19:30   42.0    33    0.8   302      2.3   971.8    0.00       0    50.3
 335   19:40   38.7    38    2.1   313      3.2   971.9    0.00       0    49.4
 335   19:50   40.1    36    2.0   293      3.8   971.9    0.00       0    49.3
 335   20:00   38.5    38    0.8   309      1.9   971.8    0.00       0    48.8
 335   20:10   37.7    41    1.3   328      2.0   971.7    0.00       0    48.7
 335   20:20   37.7    41    1.1   342      2.9   971.5    0.00       0    48.5
 335   20:30   37.0    40    2.3   346      3.0   971.5    0.00       0    48.1
 335   20:40   38.0    39    1.4   311      2.3   971.4    0.00       0    48.1
 335   20:50   38.2    37    0.0   291      0.7   971.2    0.00       0    47.8
 335   21:00   38.0    35    0.2   316      0.9   971.1    0.00       0    47.6
 335   21:10   35.9    43    1.8   355      2.6   971.2    0.00       0    46.9
 335   21:20   35.5    42    2.4   329      3.9   971.4    0.00       0    46.7
 335   21:30   36.1    40    0.4   300      1.7   971.5    0.00       0    46.7
 335   21:40   38.0    35    0.8   260      3.2   971.6    0.00       0    47.0
 335   21:50   38.8    32    0.5   263      2.9   971.6    0.00       0    46.8
 335   22:00   37.8    32    0.3   265      1.5   971.5    0.00       0    46.4
 335   22:10   36.2    38    1.7   352      2.9   971.4    0.00       0    46.1
 335   22:20   35.4    41    1.8   356      2.6   971.4    0.00       0    45.8
 335   22:30   34.6    43    0.9   350      2.5   971.4    0.00       0    45.7
 335   22:40   37.3    36    1.9   292      4.4   971.6    0.00       0    45.9
 335   22:50   37.0    34    1.4   297      3.2   971.8    0.00       0    45.6
 335   23:00   36.3    35    1.6   306      3.9   971.8    0.00       0    45.4
 335   23:10   35.7    37    1.8   346      3.0   971.8    0.00       0    45.0
 335   23:20   35.1    40    1.6   332      3.0   971.8    0.00       0    44.9
 335   23:30   36.2    36    1.0   297      2.6   971.7    0.00       0    44.9
 335   23:40   35.7    37    2.4   304      4.3   971.7    0.00       0    44.6
 335   23:50   35.8    36    0.5   320      1.5   971.8    0.00       0    44.5
 336    0:00   36.3    36    0.3   271      2.6   971.8    0.00       0    44.5
 336    0:10   36.1    35    1.5   274      3.4   971.7    0.00       0    44.3
 336    0:20   34.7    36    2.2   308      3.9   971.6    0.00       0    43.8
 336    0:30   35.0    38    2.7    13      3.6   971.6    0.00       0    43.6
 336    0:40   35.0    38    0.9   328      2.6   971.5    0.00       0    43.6
 336    0:50   33.6    40    0.6   321      2.3   971.5    0.00       0    43.0
 336    1:00   34.7    38    1.3   246      3.5   971.6    0.00       0    43.4
 336    1:10   35.3    37    1.7   238      3.8   971.5    0.00       0    43.4
 336    1:20   35.1    36    0.3   289      1.7   971.5    0.00       0    43.1
 336    1:30   33.2    39    1.6   312      2.6   971.6    0.00       0    42.6
 336    1:40   32.3    42    1.7   345      3.7   971.6    0.00       0    42.3
 336    1:50   31.4    46    1.0   358      2.3   971.7    0.00       0    42.0
 336    2:00   31.9    45    2.1   320      4.2   971.6    0.00       0    41.9
 336    2:10   34.3    39    1.5   293      3.6   971.6    0.00       0    42.2
 336    2:20   33.1    39    0.9   298      3.5   971.8    0.00       0    41.7
 336    2:30   32.0    40    0.3   270      2.2   971.8    0.00       0    41.4
 336    2:40   32.4    40    1.4   312      3.9   971.7    0.00       0    41.2
 336    2:50   32.4    42    0.2     7      1.2   971.7    0.00       0    41.4
 336    3:00   33.1    40    0.0   248      1.7   971.7    0.00       0    41.3
 336    3:10   32.0    41    0.0   295      0.5   971.6    0.00       0    40.9
 336    3:20   31.4    42    0.2   268      1.4   971.4    0.00       0    40.6
 336    3:30   32.0    41    0.6   281      2.9   971.4    0.00       0    40.6
 336    3:40   32.0    42    0.0   351      0.7   971.6    0.00       0    40.5
 336    3:50   32.3    42    1.0   257      4.1   971.7    0.00       0    40.8
 336    4:00   35.0    34    2.1   269      4.4   971.7    0.00       0    41.2
 336    4:10   35.7    33    1.2   295      3.4   971.9    0.00       0    41.3
 336    4:20   35.1    34    1.1   268      3.3   972.1    0.00       0    41.1
 336    4:30   36.3    32    1.4   275      4.3   972.3    0.00       0    41.4
 336    4:40   35.6    32    1.1   276      4.0   972.5    0.00       0    41.2
 336    4:50   36.2    31    0.7   273      3.2   972.5    0.00       0    41.5
 336    5:00   36.9    30    1.1   274      4.0   972.4    0.00       0    41.6
 336    5:10   36.1    31    0.4    75      1.8   972.6    0.00       0    41.1
 336    5:20   35.1    35    0.7   262      3.0   972.4    0.00       0    40.7
 336    5:30   33.1    40    0.1   329      1.1   972.6    0.00       0    40.4
 336    5:40   31.3    45    0.6     3      2.8   972.7    0.00       0    40.1
 336    5:50   30.7    46    2.4   339      5.3   973.1    0.00       0    39.6
 336    6:00   34.0    35    2.0   285      5.3   973.1    0.00       0    40.1
 336    6:10   35.8    32    1.8   268      4.6   973.1    0.00       0    40.4
 336    6:20   36.0    32    2.6   309      5.3   973.1    0.00       0    40.3
 336    6:30   34.3    36    2.1    33      4.2   973.3    0.00       2    39.9
 336    6:40   33.4    38    0.9   252      2.6   973.1    0.00       5    39.9
 336    6:50   32.6    38    0.7   304      2.2   973.2    0.00      10    39.7
 336    7:00   32.0    40    0.7   359      2.0   973.4    0.00      15    39.6
 336    7:10   31.7    42    1.5   322      2.6   973.3    0.00      32    39.7
 336    7:20   33.4    38    2.8   285      6.3   973.3    0.00      82    40.0
 336    7:30   36.3    33    2.7   291      5.5   973.4    0.00     112    40.5
 336    7:40   38.4    30    2.1   302      6.1   973.7    0.00     138    41.6
 336    7:50   40.0    29    3.2   286      7.9   973.9    0.00      62    43.7
 336    8:00   41.4    28    4.7   293      8.2   974.2    0.00     126    45.5
 336    8:10   42.4    28    4.9   288      8.6   974.5    0.00     215    46.4
 336    8:20   43.8    27    4.8   293      7.4   974.7    0.00     241    47.4
 336    8:30   45.2    25    4.2   284      7.2   975.0    0.00     266    48.5
 336    8:40   46.3    24    2.7   301      5.0   975.2    0.00     291    49.4
 336    8:50   47.7    23    2.9   276      4.8   975.3    0.00     314    50.5
 336    9:00   49.0    23    1.8   263      5.1   975.5    0.00     337    51.3
 336    9:10   50.0    22    3.3   295      5.7   975.5    0.00     358    52.7
 336    9:20   51.0    21    3.7   301      7.9   975.6    0.00     380    53.4
 336    9:30   53.2    20    2.3   264      6.4   975.7    0.00     399    54.6
 336    9:40   56.1    19    3.1   256      6.6   975.7    0.00     415    56.2
 336    9:50   58.1    18    3.1   290      6.1   975.9    0.00     431    57.4
 336   10:00   58.9    18    5.8   314     10.2   975.9    0.00     444    58.5
 336   10:10   59.0    18    4.8   307      7.8   976.1    0.00     459    59.5
 336   10:20   60.0    18    4.1   264      8.7   976.0    0.00     473    60.9
 336   10:30   61.2    17    3.7   289      9.2   975.9    0.00     484    62.0

Return to Overton, Nevada graphs page.


Western Regional Climate Center,wrcc@dri.edu